createdAt,value
2023-03-23T16:02:07.143Z,0.28
2023-03-23T16:07:08.668Z,0.30
2023-03-23T16:12:10.090Z,2.65
2023-03-23T16:17:11.539Z,0.75
2023-03-23T16:22:12.969Z,0.35
2023-03-23T16:27:14.447Z,4.82
2023-03-23T16:32:23.408Z,0.22
2023-03-23T16:37:24.908Z,0.40
2023-03-23T16:42:26.500Z,0.93
2023-03-23T16:47:28.001Z,0.30
2023-03-23T16:52:29.542Z,0.45
2023-03-23T16:57:31.002Z,0.52
2023-03-23T17:02:32.563Z,0.20
2023-03-23T17:07:34.063Z,0.70
2023-03-23T17:12:35.519Z,1.00
2023-03-23T17:17:36.978Z,0.38
2023-03-23T17:22:38.463Z,0.25
2023-03-23T17:27:39.940Z,0.45
2023-03-23T17:32:41.382Z,0.20
2023-03-23T17:37:42.884Z,0.45
2023-03-23T17:42:44.441Z,0.30
2023-03-23T17:47:45.936Z,0.55
2023-03-23T17:52:47.371Z,0.52
2023-03-23T17:57:48.793Z,1.45
2023-03-23T18:02:50.294Z,0.60
2023-03-23T18:07:51.838Z,0.40
2023-03-23T18:12:53.355Z,1.23
2023-03-23T18:17:54.823Z,0.20
2023-03-23T18:22:56.339Z,0.47
2023-03-23T18:27:57.776Z,1.48
2023-03-23T18:33:07.674Z,0.52
2023-03-23T18:38:09.155Z,0.43
2023-03-23T18:43:10.623Z,0.25
2023-03-23T18:48:12.097Z,0.13
2023-03-23T18:53:13.525Z,0.30
2023-03-23T18:58:14.985Z,1.58
2023-03-23T19:03:16.548Z,12.63
2023-03-23T19:08:18.065Z,10.55
2023-03-23T19:13:19.530Z,14.00
2023-03-23T19:18:21.089Z,17.70
2023-03-23T19:23:22.534Z,10.65
2023-03-23T19:29:05.554Z,10.02
2023-03-23T19:33:45.440Z,12.45
2023-03-23T19:38:48.866Z,9.57
2023-03-23T19:43:50.358Z,10.98
2023-03-23T19:48:51.826Z,13.27
2023-03-23T19:53:53.706Z,10.38
2023-03-23T19:58:55.758Z,11.75
2023-03-23T20:03:59.699Z,11.82
2023-03-23T20:09:01.531Z,8.88
2023-03-23T20:14:03.005Z,10.70
2023-03-23T20:19:05.416Z,13.05
2023-03-23T20:24:07.253Z,12.95
2023-03-23T20:29:08.722Z,12.35
2023-03-23T20:34:10.417Z,12.43
2023-03-23T20:39:11.889Z,13.10
2023-03-23T20:44:13.338Z,14.65
2023-03-23T20:49:14.803Z,13.90
2023-03-23T20:54:19.691Z,11.98
2023-03-23T20:59:21.136Z,11.52
2023-03-23T21:04:22.692Z,15.10
2023-03-23T21:09:24.564Z,11.80
2023-03-23T21:14:26.211Z,15.95
2023-03-23T21:19:27.711Z,11.65
2023-03-23T21:24:29.222Z,13.90
2023-03-23T21:29:30.665Z,16.85
2023-03-23T21:34:32.130Z,14.13
2023-03-23T21:39:33.657Z,17.60
2023-03-23T21:44:35.214Z,21.23
2023-03-23T21:49:40.563Z,23.65
2023-03-23T21:54:42.899Z,21.95
2023-03-23T21:59:44.376Z,20.33
2023-03-23T22:04:45.814Z,19.70
2023-03-23T22:09:47.276Z,19.55
2023-03-23T22:14:48.729Z,24.50
2023-03-23T22:19:50.397Z,18.95
2023-03-23T22:24:51.824Z,21.95
2023-03-23T22:29:53.298Z,21.58
2023-03-23T22:34:54.761Z,21.05
2023-03-23T22:39:58.521Z,18.00
2023-03-23T22:44:59.954Z,20.20
2023-03-23T22:50:01.399Z,18.67
2023-03-23T22:55:02.843Z,19.40
2023-03-23T23:00:04.308Z,19.80
2023-03-23T23:05:05.760Z,15.68
2023-03-23T23:10:07.291Z,15.40
2023-03-23T23:15:08.782Z,14.80
2023-03-23T23:20:10.213Z,14.88
2023-03-23T23:25:11.647Z,17.63
2023-03-23T23:30:13.266Z,16.35
2023-03-23T23:35:16.502Z,12.23
2023-03-23T23:40:17.934Z,13.32
2023-03-23T23:45:19.391Z,13.15
2023-03-23T23:50:20.812Z,12.02
2023-03-23T23:55:22.236Z,13.50
